Time;durP1;ratioP1;P1;durP2;ratioP2;P2;SDS_P1;SDS_P2;PMS_P1;PMS_P2;Temp;Humidity;BMP_temperature;BMP_pressure;BME280_temperature;BME280_humidity;BME280_pressure;Samples;Min_cycle;Max_cycle;Signal;HPM_P1;HPM_P2
2022/03/19 00:00:17;;;;;;;;;;;5.90;99.90;;;;;;5096434;28;19928;-55
2022/03/19 00:02:44;;;;;;;;;;;6.20;99.90;;;;;;5095974;28;19935;-55
2022/03/19 00:05:12;;;;;;;;;;;6.10;99.90;;;;;;5095993;28;20349;-55
2022/03/19 00:07:40;;;;;;;;;;;6.10;99.90;;;;;;5095427;28;19928;-55
2022/03/19 00:10:08;;;;;;;;;;;6.10;99.90;;;;;;5096317;28;19928;-55
2022/03/19 00:12:35;;;;;;;;;;;6.40;99.90;;;;;;5095263;28;19930;-55
2022/03/19 00:15:02;;;;;;;;;;;6.50;99.90;;;;;;5094840;28;19924;-55
2022/03/19 00:17:29;;;;;;;;;;;6.60;99.90;;;;;;5095004;28;20000;-55
2022/03/19 00:19:56;;;;;;;;;;;6.70;99.90;;;;;;5094544;28;19924;-56
2022/03/19 00:22:24;;;;;;;;;;;6.60;99.90;;;;;;5095201;28;19978;-55
2022/03/19 00:24:51;;;;;;;;;;;6.50;99.90;;;;;;5095037;28;20328;-55
2022/03/19 00:27:17;;;;;;;;;;;6.80;99.90;;;;;;5094934;28;19927;-55
2022/03/19 00:29:44;;;;;;;;;;;6.70;99.90;;;;;;5094975;28;19924;-55
2022/03/19 00:32:11;;;;;;;;;;;6.50;99.90;;;;;;5094603;28;20052;-55
2022/03/19 00:34:38;;;;;;;;;;;6.40;99.90;;;;;;5095112;28;19977;-55
2022/03/19 00:37:04;;;;;;;;;;;6.30;99.90;;;;;;5095611;28;19924;-55
2022/03/19 00:39:32;;;;;;;;;;;6.30;99.90;;;;;;5094753;28;19969;-56
2022/03/19 00:41:59;;;;;;;;;;;6.20;99.90;;;;;;5093549;28;19928;-56
2022/03/19 00:44:26;;;;;;;;;;;6.30;99.90;;;;;;5095519;28;19953;-56
2022/03/19 00:46:53;;;;;;;;;;;6.20;99.90;;;;;;5095389;28;19928;-56
2022/03/19 00:49:19;;;;;;;;;;;6.10;99.90;;;;;;5094441;28;19969;-56
2022/03/19 00:51:46;;;;;;;;;;;5.90;99.90;;;;;;5095123;28;19928;-56
2022/03/19 00:54:15;;;;;;;;;;;5.70;99.90;;;;;;5095145;28;20680;-56
2022/03/19 00:56:45;;;;;;;;;;;5.60;99.90;;;;;;5094981;28;19963;-56
2022/03/19 00:59:12;;;;;;;;;;;5.60;99.90;;;;;;5094402;28;19935;-55
2022/03/19 01:01:39;;;;;;;;;;;5.50;99.90;;;;;;5094588;28;19924;-56
2022/03/19 01:04:06;;;;;;;;;;;5.50;99.90;;;;;;5094831;28;19928;-55
2022/03/19 01:06:32;;;;;;;;;;;5.80;99.90;;;;;;5094744;28;19995;-55
2022/03/19 01:08:59;;;;;;;;;;;6.10;99.90;;;;;;5094363;28;19924;-55
2022/03/19 01:11:26;;;;;;;;;;;6.10;99.90;;;;;;5094180;28;19932;-55
2022/03/19 01:13:55;;;;;;;;;;;6.00;99.90;;;;;;5094363;28;19925;-55
2022/03/19 01:16:23;;;;;;;;;;;5.70;99.90;;;;;;5095017;28;19935;-55
2022/03/19 01:18:50;;;;;;;;;;;5.80;99.90;;;;;;5094413;28;20264;-55
2022/03/19 01:21:17;;;;;;;;;;;5.70;99.90;;;;;;5094402;28;19977;-55
2022/03/19 01:23:44;;;;;;;;;;;5.60;99.90;;;;;;5094807;28;19928;-55
2022/03/19 01:26:10;;;;;;;;;;;5.40;99.90;;;;;;5094908;28;20383;-57
2022/03/19 01:28:38;;;;;;;;;;;5.30;99.90;;;;;;5094793;28;20363;-55
2022/03/19 01:31:06;;;;;;;;;;;5.20;99.90;;;;;;5098367;28;19979;-55
2022/03/19 01:33:33;;;;;;;;;;;5.10;99.90;;;;;;5098392;28;19928;-56
2022/03/19 01:36:03;;;;;;;;;;;5.00;99.90;;;;;;5095458;28;19977;-56
2022/03/19 01:38:29;;;;;;;;;;;4.90;99.90;;;;;;5093544;28;20359;-55
2022/03/19 01:40:56;;;;;;;;;;;4.90;99.90;;;;;;5094546;28;19977;-56
2022/03/19 01:43:23;;;;;;;;;;;4.90;99.90;;;;;;5093917;28;19969;-55
2022/03/19 01:45:50;;;;;;;;;;;4.90;99.90;;;;;;5093599;28;19932;-55
2022/03/19 01:48:19;;;;;;;;;;;4.80;99.90;;;;;;5094314;28;19924;-56
2022/03/19 01:50:45;;;;;;;;;;;4.90;99.90;;;;;;5093765;28;19924;-56
2022/03/19 01:53:12;;;;;;;;;;;5.20;99.90;;;;;;5093719;28;19993;-55
2022/03/19 01:55:39;;;;;;;;;;;5.30;99.90;;;;;;5093372;28;20026;-55
2022/03/19 01:58:06;;;;;;;;;;;5.20;99.90;;;;;;5093348;28;19985;-55
2022/03/19 02:00:33;;;;;;;;;;;5.10;99.90;;;;;;5093345;28;19927;-56
2022/03/19 02:03:00;;;;;;;;;;;5.00;99.90;;;;;;5093434;28;19928;-55
2022/03/19 02:05:29;;;;;;;;;;;5.00;99.90;;;;;;5093454;28;19924;-55
2022/03/19 02:07:56;;;;;;;;;;;4.90;99.90;;;;;;5093972;28;19932;-56
2022/03/19 02:10:23;;;;;;;;;;;4.80;99.90;;;;;;5093593;28;19985;-55
2022/03/19 02:12:50;;;;;;;;;;;4.80;99.90;;;;;;5092981;28;19963;-55
2022/03/19 02:15:17;;;;;;;;;;;4.70;99.90;;;;;;5093152;28;19928;-55
2022/03/19 02:17:44;;;;;;;;;;;4.60;99.90;;;;;;5092625;28;19924;-55
2022/03/19 02:20:11;;;;;;;;;;;4.60;99.90;;;;;;5092513;28;19931;-55
2022/03/19 02:22:39;;;;;;;;;;;4.50;99.90;;;;;;5092491;28;20287;-55
2022/03/19 02:28:04;;;;;;;;;;;4.70;99.90;;;;;;5070005;28;19925;-55
2022/03/19 02:30:32;;;;;;;;;;;4.60;99.90;;;;;;5087358;28;19924;-55
2022/03/19 02:33:00;;;;;;;;;;;4.50;99.90;;;;;;5091647;28;19924;-55
2022/03/19 02:35:27;;;;;;;;;;;4.50;99.90;;;;;;5092512;28;19963;-55
2022/03/19 02:37:54;;;;;;;;;;;4.50;99.90;;;;;;5092393;28;19973;-55
2022/03/19 02:40:22;;;;;;;;;;;4.50;99.90;;;;;;5091406;28;19924;-55
2022/03/19 02:42:50;;;;;;;;;;;4.50;99.90;;;;;;5091560;28;20399;-55
2022/03/19 02:45:17;;;;;;;;;;;4.70;99.90;;;;;;5092517;28;19924;-55
2022/03/19 02:47:59;;;;;;;;;;;4.80;99.90;;;;;;5092379;28;19928;-55
2022/03/19 02:50:28;;;;;;;;;;;4.80;99.90;;;;;;5092377;28;20394;-55
2022/03/19 02:52:55;;;;;;;;;;;4.90;99.90;;;;;;5092372;28;19928;-55
2022/03/19 02:55:23;;;;;;;;;;;4.80;99.90;;;;;;5092707;28;19976;-55
2022/03/19 02:57:49;;;;;;;;;;;4.90;99.90;;;;;;5092725;28;19977;-55
2022/03/19 03:00:16;;;;;;;;;;;5.10;99.90;;;;;;5092302;28;19982;-56
2022/03/19 03:02:43;;;;;;;;;;;5.00;99.90;;;;;;5091810;28;20352;-55
2022/03/19 03:05:13;;;;;;;;;;;5.00;99.90;;;;;;5092645;28;20390;-55
2022/03/19 03:07:40;;;;;;;;;;;4.90;99.90;;;;;;5092839;28;19978;-55
2022/03/19 03:10:08;;;;;;;;;;;4.80;99.90;;;;;;5092231;28;19989;-55
2022/03/19 03:12:36;;;;;;;;;;;4.70;99.90;;;;;;5092209;28;19932;-55
2022/03/19 03:15:03;;;;;;;;;;;4.60;99.90;;;;;;5092772;28;19924;-55
2022/03/19 03:17:30;;;;;;;;;;;4.60;99.90;;;;;;5092670;28;20311;-55
2022/03/19 03:19:57;;;;;;;;;;;4.60;99.90;;;;;;5092335;28;19927;-55
2022/03/19 03:22:23;;;;;;;;;;;4.50;99.90;;;;;;5094551;28;20344;-55
2022/03/19 03:24:50;;;;;;;;;;;4.60;99.90;;;;;;5096134;28;19924;-55
2022/03/19 03:27:17;;;;;;;;;;;4.80;99.90;;;;;;5093204;28;20340;-55
2022/03/19 03:29:45;;;;;;;;;;;4.70;99.90;;;;;;5093186;28;19974;-55
2022/03/19 03:32:12;;;;;;;;;;;4.60;99.90;;;;;;5096145;28;20423;-55
2022/03/19 03:34:39;;;;;;;;;;;4.60;99.90;;;;;;5096816;28;19969;-55
2022/03/19 03:37:05;;;;;;;;;;;4.60;99.90;;;;;;5096644;28;19939;-55
2022/03/19 03:39:32;;;;;;;;;;;4.50;99.90;;;;;;5095811;28;19997;-55
2022/03/19 03:41:59;;;;;;;;;;;4.50;99.90;;;;;;5095697;28;19924;-55
2022/03/19 03:44:26;;;;;;;;;;;4.50;99.90;;;;;;5096108;28;19973;-55
2022/03/19 03:46:54;;;;;;;;;;;4.50;99.90;;;;;;5095993;28;19924;-55
2022/03/19 03:49:20;;;;;;;;;;;4.40;99.90;;;;;;5094862;28;19932;-56
2022/03/19 03:51:47;;;;;;;;;;;4.50;99.90;;;;;;5095731;28;19978;-55
2022/03/19 03:54:15;;;;;;;;;;;4.50;99.90;;;;;;5096204;28;19924;-55
2022/03/19 03:56:44;;;;;;;;;;;4.40;99.90;;;;;;5095638;28;19924;-55
2022/03/19 03:59:11;;;;;;;;;;;4.50;99.90;;;;;;5095339;28;19963;-55
2022/03/19 04:01:37;;;;;;;;;;;4.50;99.90;;;;;;5094558;28;19924;-55
2022/03/19 04:04:06;;;;;;;;;;;4.40;99.90;;;;;;5095702;28;19924;-55
2022/03/19 04:06:32;;;;;;;;;;;4.40;99.90;;;;;;5091396;28;19924;-55
2022/03/19 04:08:59;;;;;;;;;;;4.30;99.90;;;;;;5094426;28;19928;-55
2022/03/19 04:11:26;;;;;;;;;;;4.20;99.90;;;;;;5094717;28;19981;-61
2022/03/19 04:13:52;;;;;;;;;;;4.10;99.90;;;;;;5094514;28;19977;-55
2022/03/19 04:16:19;;;;;;;;;;;4.00;99.90;;;;;;5094973;28;19924;-56
2022/03/19 04:18:46;;;;;;;;;;;4.00;99.90;;;;;;5094671;28;19928;-55
2022/03/19 04:21:14;;;;;;;;;;;3.90;99.90;;;;;;5094334;28;19924;-55
2022/03/19 04:23:41;;;;;;;;;;;3.80;99.90;;;;;;5095272;28;20040;-55
2022/03/19 04:26:08;;;;;;;;;;;3.80;99.90;;;;;;5094201;28;20036;-55
2022/03/19 04:28:35;;;;;;;;;;;3.70;99.90;;;;;;5094269;28;19991;-55
2022/03/19 04:31:02;;;;;;;;;;;3.80;99.90;;;;;;5094644;28;20103;-55
2022/03/19 04:33:29;;;;;;;;;;;4.10;99.90;;;;;;5094645;28;19924;-55
2022/03/19 04:38:41;;;;;;;;;;;4.10;99.90;;;;;;5094535;28;19927;-55
2022/03/19 04:41:08;;;;;;;;;;;4.20;99.90;;;;;;5092480;28;19924;-56
2022/03/19 04:43:35;;;;;;;;;;;4.30;99.90;;;;;;5093156;28;19932;-55
2022/03/19 04:46:01;;;;;;;;;;;4.10;99.90;;;;;;5095119;28;19924;-55
2022/03/19 04:48:30;;;;;;;;;;;4.00;99.90;;;;;;5094757;28;19924;-55
2022/03/19 04:50:57;;;;;;;;;;;4.00;99.90;;;;;;5094696;28;19934;-55
2022/03/19 04:53:24;;;;;;;;;;;3.90;99.90;;;;;;5094552;28;19977;-55
2022/03/19 04:55:52;;;;;;;;;;;3.80;99.90;;;;;;5094185;28;19924;-55
2022/03/19 04:58:19;;;;;;;;;;;3.70;99.90;;;;;;5094340;28;20027;-55
2022/03/19 05:00:46;;;;;;;;;;;3.60;99.90;;;;;;5094224;28;19932;-55
2022/03/19 05:03:13;;;;;;;;;;;3.50;99.90;;;;;;5093273;28;20340;-56
2022/03/19 05:05:40;;;;;;;;;;;3.50;99.90;;;;;;5093324;28;19977;-55
2022/03/19 05:08:07;;;;;;;;;;;3.40;99.90;;;;;;5093627;28;19928;-55
2022/03/19 05:13:20;;;;;;;;;;;3.30;99.90;;;;;;5093395;28;20013;-55
2022/03/19 05:15:47;;;;;;;;;;;3.30;99.90;;;;;;5095668;28;19928;-55
2022/03/19 05:18:13;;;;;;;;;;;3.30;99.90;;;;;;5096045;28;21833;-55
2022/03/19 05:20:40;;;;;;;;;;;3.30;99.90;;;;;;5095197;28;19924;-55
2022/03/19 05:23:07;;;;;;;;;;;3.30;99.90;;;;;;5093836;28;19993;-55
2022/03/19 05:25:34;;;;;;;;;;;3.30;99.90;;;;;;5093259;28;19932;-55
2022/03/19 05:28:01;;;;;;;;;;;3.30;99.90;;;;;;5090810;28;19969;-55
2022/03/19 05:30:30;;;;;;;;;;;3.30;99.90;;;;;;5115278;22;19924;-51
2022/03/19 05:32:57;;;;;;;;;;;3.40;99.90;;;;;;5091105;28;19931;-51
2022/03/19 05:35:24;;;;;;;;;;;3.40;99.90;;;;;;5092203;28;19924;-52
2022/03/19 05:37:51;;;;;;;;;;;3.40;99.90;;;;;;5099995;28;19924;-51
2022/03/19 05:40:18;;;;;;;;;;;3.60;99.90;;;;;;5111728;28;19996;-51
2022/03/19 05:42:45;;;;;;;;;;;3.80;99.90;;;;;;5111126;27;19928;-52
2022/03/19 05:45:14;;;;;;;;;;;4.10;99.90;;;;;;5111766;28;19973;-51
2022/03/19 05:47:42;;;;;;;;;;;4.20;99.90;;;;;;5111558;28;19924;-52
2022/03/19 05:50:10;;;;;;;;;;;4.20;99.90;;;;;;5089119;28;20353;-51
2022/03/19 05:52:37;;;;;;;;;;;4.30;99.90;;;;;;5090698;28;19985;-52
2022/03/19 05:55:04;;;;;;;;;;;4.40;99.90;;;;;;5091149;28;19971;-51
2022/03/19 05:57:30;;;;;;;;;;;4.60;99.90;;;;;;5089958;28;19924;-51
2022/03/19 05:59:57;;;;;;;;;;;4.80;99.90;;;;;;5092191;28;19924;-51
2022/03/19 06:02:24;;;;;;;;;;;4.80;99.90;;;;;;5091147;28;19932;-52
2022/03/19 06:04:52;;;;;;;;;;;5.00;99.90;;;;;;5088240;28;19986;-51
2022/03/19 06:07:19;;;;;;;;;;;5.00;99.90;;;;;;5085630;28;20452;-51
2022/03/19 06:09:46;;;;;;;;;;;5.00;99.90;;;;;;5096767;28;19924;-51
2022/03/19 06:12:13;;;;;;;;;;;4.90;99.90;;;;;;5093478;28;19928;-51
2022/03/19 06:14:42;;;;;;;;;;;4.90;99.90;;;;;;5099559;28;20451;-52
2022/03/19 06:17:09;;;;;;;;;;;4.90;99.90;;;;;;5084979;28;19962;-51
2022/03/19 06:19:36;;;;;;;;;;;5.10;99.90;;;;;;5092273;28;20033;-52
2022/03/19 06:22:05;;;;;;;;;;;5.40;99.90;;;;;;5092904;28;20319;-52
2022/03/19 06:24:31;;;;;;;;;;;6.40;99.90;;;;;;5102101;28;20348;-52
2022/03/19 06:26:58;;;;;;;;;;;7.70;99.90;;;;;;5093215;28;19924;-51
2022/03/19 06:29:25;;;;;;;;;;;9.20;99.90;;;;;;5087157;28;19977;-51
2022/03/19 06:31:51;;;;;;;;;;;10.20;99.90;;;;;;5100386;28;20284;-51
2022/03/19 06:34:18;;;;;;;;;;;11.30;99.90;;;;;;5087610;28;19928;-52
2022/03/19 06:39:30;;;;;;;;;;;13.10;99.90;;;;;;5089892;28;19927;-52
2022/03/19 06:41:57;;;;;;;;;;;13.90;99.90;;;;;;5091742;28;20346;-51
2022/03/19 06:44:24;;;;;;;;;;;14.30;99.90;;;;;;5092023;28;19924;-52
2022/03/19 06:46:51;;;;;;;;;;;14.50;99.90;;;;;;5076825;28;20430;-50
2022/03/19 06:49:18;;;;;;;;;;;14.50;99.90;;;;;;5081506;28;19975;-51
2022/03/19 06:51:45;;;;;;;;;;;14.10;99.90;;;;;;5081249;28;19932;-51
2022/03/19 06:54:11;;;;;;;;;;;14.30;99.90;;;;;;5096598;28;19932;-52
2022/03/19 06:56:39;;;;;;;;;;;14.40;99.90;;;;;;5106697;28;20345;-51
2022/03/19 06:59:06;;;;;;;;;;;14.60;99.90;;;;;;5091367;28;20303;-51
2022/03/19 07:01:36;;;;;;;;;;;14.70;99.90;;;;;;5099327;28;20004;-51
2022/03/19 07:04:03;;;;;;;;;;;14.20;99.90;;;;;;5086445;28;20375;-51
2022/03/19 07:06:30;;;;;;;;;;;13.60;99.90;;;;;;5109568;28;19923;-51
2022/03/19 07:08:56;;;;;;;;;;;13.30;99.90;;;;;;5109225;28;19924;-51
2022/03/19 07:11:23;;;;;;;;;;;13.10;99.90;;;;;;5094866;28;20008;-51
2022/03/19 07:13:51;;;;;;;;;;;12.80;99.90;;;;;;5095562;28;19924;-50
2022/03/19 07:16:18;;;;;;;;;;;13.30;99.90;;;;;;5109280;28;19923;-52
2022/03/19 07:18:45;;;;;;;;;;;13.70;99.90;;;;;;5105196;28;19924;-51
2022/03/19 07:21:12;;;;;;;;;;;14.10;99.90;;;;;;5104644;28;19947;-52
2022/03/19 07:23:39;;;;;;;;;;;15.00;99.20;;;;;;5114038;28;19971;-51
2022/03/19 07:26:06;;;;;;;;;;;14.90;99.00;;;;;;5092749;28;20023;-52
2022/03/19 07:28:33;;;;;;;;;;;15.60;98.10;;;;;;5095240;28;19928;-51
2022/03/19 07:31:01;;;;;;;;;;;15.80;96.40;;;;;;5094945;28;19924;-51
2022/03/19 07:33:33;;;;;;;;;;;16.30;96.10;;;;;;5095868;28;19941;-52
2022/03/19 07:36:00;;;;;;;;;;;16.10;96.20;;;;;;5096949;28;19931;-51
2022/03/19 07:38:27;;;;;;;;;;;16.30;95.60;;;;;;5074698;28;19928;-51
2022/03/19 07:43:38;;;;;;;;;;;16.50;94.20;;;;;;5075317;28;20051;-51
2022/03/19 07:46:06;;;;;;;;;;;16.30;94.70;;;;;;5086247;28;19932;-51
2022/03/19 07:48:33;;;;;;;;;;;17.10;93.90;;;;;;5109348;28;19935;-51
2022/03/19 07:51:00;;;;;;;;;;;16.70;94.00;;;;;;5099586;28;19954;-51
2022/03/19 07:53:27;;;;;;;;;;;16.80;93.90;;;;;;5078082;28;19928;-51
2022/03/19 07:55:55;;;;;;;;;;;17.30;93.50;;;;;;5092887;28;19928;-51
2022/03/19 07:58:22;;;;;;;;;;;17.00;93.60;;;;;;5080441;28;20515;-51
2022/03/19 08:00:48;;;;;;;;;;;16.70;93.40;;;;;;5080638;28;19924;-51
2022/03/19 08:03:17;;;;;;;;;;;16.40;94.40;;;;;;5075517;28;19924;-51
2022/03/19 08:05:44;;;;;;;;;;;16.70;93.30;;;;;;5077074;28;19939;-52
2022/03/19 08:08:11;;;;;;;;;;;15.60;94.50;;;;;;5091456;28;19969;-51
2022/03/19 08:10:38;;;;;;;;;;;16.80;93.60;;;;;;5081267;28;20611;-52
2022/03/19 08:13:06;;;;;;;;;;;16.70;93.70;;;;;;5100471;28;20447;-52
2022/03/19 08:15:33;;;;;;;;;;;16.50;93.40;;;;;;5089228;28;21221;-51
2022/03/19 08:18:00;;;;;;;;;;;15.60;93.60;;;;;;5090779;28;19978;-51
2022/03/19 08:20:28;;;;;;;;;;;14.60;95.00;;;;;;5097726;28;19924;-51
2022/03/19 08:22:55;;;;;;;;;;;15.10;95.20;;;;;;5111764;28;20348;-51
2022/03/19 08:25:22;;;;;;;;;;;16.30;94.30;;;;;;5108691;28;19924;-52
2022/03/19 08:27:50;;;;;;;;;;;17.30;93.30;;;;;;5075485;28;19971;-51
2022/03/19 08:30:17;;;;;;;;;;;17.20;92.00;;;;;;5081258;28;20027;-52
2022/03/19 08:32:44;;;;;;;;;;;16.40;93.10;;;;;;5085844;28;19936;-52
2022/03/19 08:35:11;;;;;;;;;;;17.10;92.20;;;;;;5081504;28;19924;-52
2022/03/19 08:37:39;;;;;;;;;;;18.90;90.30;;;;;;5092085;28;20456;-52
2022/03/19 08:40:18;;;;;;;;;;;20.60;86.90;;;;;;5087744;28;19969;-52
2022/03/19 08:42:46;;;;;;;;;;;22.40;81.80;;;;;;5074563;28;19920;-52
2022/03/19 08:45:13;;;;;;;;;;;22.30;77.90;;;;;;5093309;28;19924;-52
2022/03/19 08:47:40;;;;;;;;;;;21.40;79.80;;;;;;5093599;28;19969;-52
2022/03/19 08:50:07;;;;;;;;;;;21.40;77.90;;;;;;5093272;28;19924;-52
2022/03/19 08:52:34;;;;;;;;;;;21.70;76.90;;;;;;5093179;28;19973;-52
2022/03/19 08:55:02;;;;;;;;;;;21.90;75.70;;;;;;5093259;28;20440;-52
2022/03/19 08:57:29;;;;;;;;;;;22.60;74.10;;;;;;5091281;28;20026;-52
2022/03/19 08:59:56;;;;;;;;;;;21.70;74.30;;;;;;5072693;28;20402;-51
2022/03/19 09:02:23;;;;;;;;;;;19.70;76.20;;;;;;5072887;28;19924;-52
2022/03/19 09:04:49;;;;;;;;;;;19.10;78.70;;;;;;5084713;28;19970;-51
2022/03/19 09:07:18;;;;;;;;;;;19.30;79.00;;;;;;5093088;28;19978;-52
2022/03/19 09:09:45;;;;;;;;;;;18.30;80.10;;;;;;5089084;28;19924;-52
2022/03/19 09:12:13;;;;;;;;;;;18.10;81.30;;;;;;5091941;28;20317;-52
2022/03/19 09:14:40;;;;;;;;;;;17.80;80.60;;;;;;5092853;28;19928;-52
2022/03/19 09:17:07;;;;;;;;;;;17.10;80.10;;;;;;5092806;28;19924;-52
2022/03/19 09:19:35;;;;;;;;;;;17.40;81.80;;;;;;5079632;28;19932;-51
2022/03/19 09:22:02;;;;;;;;;;;18.60;79.20;;;;;;5092680;28;19971;-51
2022/03/19 09:24:29;;;;;;;;;;;19.60;78.70;;;;;;5082996;28;19924;-52
2022/03/19 09:26:55;;;;;;;;;;;19.50;77.60;;;;;;5072934;28;19932;-51
2022/03/19 09:29:24;;;;;;;;;;;20.60;75.80;;;;;;5072381;28;20311;-51
2022/03/19 09:31:51;;;;;;;;;;;20.60;76.90;;;;;;5072196;28;20020;-51
2022/03/19 09:34:18;;;;;;;;;;;20.90;77.20;;;;;;5072449;28;19967;-51
2022/03/19 09:36:46;;;;;;;;;;;19.20;76.00;;;;;;5075964;28;19982;-52
2022/03/19 09:39:13;;;;;;;;;;;19.00;78.60;;;;;;5091118;28;19924;-52
2022/03/19 09:41:43;;;;;;;;;;;18.00;80.20;;;;;;5086672;28;19924;-52
2022/03/19 09:44:11;;;;;;;;;;;18.00;79.80;;;;;;5080898;28;19951;-52
2022/03/19 09:46:41;;;;;;;;;;;19.00;80.40;;;;;;5084276;28;19925;-52
2022/03/19 09:49:08;;;;;;;;;;;20.20;79.70;;;;;;5090391;28;19924;-51
2022/03/19 09:51:39;;;;;;;;;;;20.80;76.50;;;;;;5091810;28;19924;-52
2022/03/19 09:54:06;;;;;;;;;;;19.80;78.50;;;;;;5090380;28;19939;-52
2022/03/19 09:56:34;;;;;;;;;;;19.70;79.10;;;;;;5087231;28;19977;-52
2022/03/19 09:59:01;;;;;;;;;;;19.80;78.30;;;;;;5076535;28;19932;-52
2022/03/19 10:01:29;;;;;;;;;;;19.50;79.80;;;;;;5076995;28;19924;-52
2022/03/19 10:04:02;;;;;;;;;;;19.80;78.10;;;;;;5087018;28;19924;-52
2022/03/19 10:09:19;;;;;;;;;;;19.20;80.00;;;;;;5061365;28;19920;-52
2022/03/19 10:11:48;;;;;;;;;;;18.90;79.60;;;;;;5072522;28;19924;-52
2022/03/19 10:14:19;;;;;;;;;;;18.80;79.30;;;;;;5073139;28;19934;-51
2022/03/19 10:16:48;;;;;;;;;;;18.80;81.80;;;;;;5087572;28;19924;-52
2022/03/19 10:19:19;;;;;;;;;;;19.50;80.60;;;;;;5089511;28;20451;-52
2022/03/19 10:21:45;;;;;;;;;;;20.00;77.50;;;;;;5077427;28;20346;-52
2022/03/19 10:24:26;;;;;;;;;;;19.20;78.00;;;;;;5071587;28;19950;-52
2022/03/19 10:26:53;;;;;;;;;;;19.60;79.00;;;;;;5072700;28;19931;-52
2022/03/19 10:29:27;;;;;;;;;;;19.70;79.40;;;;;;5071483;28;19934;-52
2022/03/19 10:31:59;;;;;;;;;;;20.00;79.50;;;;;;5072173;28;19936;-52
2022/03/19 10:34:29;;;;;;;;;;;20.30;80.20;;;;;;5072514;28;19928;-52
2022/03/19 10:36:55;;;;;;;;;;;21.00;77.10;;;;;;5071931;28;19925;-52
2022/03/19 10:39:24;;;;;;;;;;;21.00;78.20;;;;;;5071627;28;19925;-51
2022/03/19 10:41:52;;;;;;;;;;;20.70;77.10;;;;;;5079953;28;19927;-52
2022/03/19 10:44:19;;;;;;;;;;;20.20;79.10;;;;;;5089930;28;19981;-52
2022/03/19 10:46:48;;;;;;;;;;;20.00;79.60;;;;;;5072572;28;20065;-51
2022/03/19 10:49:15;;;;;;;;;;;19.00;80.60;;;;;;5072248;28;20783;-51
2022/03/19 10:51:45;;;;;;;;;;;19.00;79.10;;;;;;5082378;28;20032;-52
2022/03/19 10:54:14;;;;;;;;;;;18.70;79.10;;;;;;5091140;28;19936;-52
2022/03/19 10:56:41;;;;;;;;;;;17.90;79.40;;;;;;5091552;28;20102;-52
2022/03/19 10:59:08;;;;;;;;;;;17.20;82.60;;;;;;5088558;28;20002;-52
2022/03/19 11:01:36;;;;;;;;;;;17.00;85.70;;;;;;5083902;28;19928;-52
2022/03/19 11:04:04;;;;;;;;;;;16.60;87.60;;;;;;5083185;28;19924;-51
2022/03/19 11:06:33;;;;;;;;;;;16.60;87.70;;;;;;5091448;28;19950;-51
2022/03/19 11:09:05;;;;;;;;;;;16.20;87.30;;;;;;5089643;28;19924;-53
2022/03/19 11:11:33;;;;;;;;;;;15.70;88.40;;;;;;5088685;28;20404;-51
2022/03/19 11:14:02;;;;;;;;;;;15.30;90.50;;;;;;5081673;28;19924;-51
2022/03/19 11:16:31;;;;;;;;;;;15.10;91.30;;;;;;5073291;28;19924;-51
2022/03/19 11:18:58;;;;;;;;;;;15.50;90.00;;;;;;5089084;28;19985;-51
2022/03/19 11:21:26;;;;;;;;;;;15.90;91.10;;;;;;5082877;28;19989;-51
2022/03/19 11:23:55;;;;;;;;;;;15.40;90.20;;;;;;5077812;28;20018;-51
2022/03/19 11:26:25;;;;;;;;;;;15.30;90.30;;;;;;5083747;28;19970;-52
2022/03/19 11:28:53;;;;;;;;;;;14.90;90.10;;;;;;5079820;28;19925;-51
2022/03/19 11:31:25;;;;;;;;;;;14.60;90.30;;;;;;5111176;22;19932;-56
2022/03/19 11:33:52;;;;;;;;;;;14.80;89.70;;;;;;5090885;28;19924;-55
2022/03/19 11:36:19;;;;;;;;;;;15.00;91.00;;;;;;5090930;28;20022;-55
2022/03/19 11:38:51;;;;;;;;;;;15.00;91.20;;;;;;5088677;28;19986;-56
2022/03/19 11:41:19;;;;;;;;;;;14.60;90.20;;;;;;5075424;28;19924;-55
2022/03/19 11:43:47;;;;;;;;;;;15.00;90.10;;;;;;5090917;28;20394;-56
2022/03/19 11:46:14;;;;;;;;;;;15.40;91.10;;;;;;5090770;28;19969;-56
2022/03/19 11:48:43;;;;;;;;;;;15.30;91.10;;;;;;5091060;28;19974;-56
2022/03/19 11:51:14;;;;;;;;;;;15.10;91.30;;;;;;5090639;28;20535;-56
2022/03/19 11:53:50;;;;;;;;;;;15.00;90.80;;;;;;5089083;28;19925;-56
2022/03/19 11:56:19;;;;;;;;;;;15.20;90.50;;;;;;5074221;28;19925;-56
2022/03/19 11:58:46;;;;;;;;;;;14.80;91.30;;;;;;5072521;28;19931;-56
2022/03/19 12:01:14;;;;;;;;;;;14.90;91.70;;;;;;5074080;28;20452;-56
2022/03/19 12:03:56;;;;;;;;;;;15.10;91.80;;;;;;5073922;28;19936;-56
2022/03/19 12:06:29;;;;;;;;;;;15.30;91.00;;;;;;5073472;28;20005;-56
2022/03/19 12:08:56;;;;;;;;;;;15.30;89.90;;;;;;5073082;28;19939;-56
2022/03/19 12:11:23;;;;;;;;;;;15.20;89.90;;;;;;5077095;28;19928;-55
2022/03/19 12:13:50;;;;;;;;;;;15.00;90.20;;;;;;5084364;28;19924;-55
2022/03/19 12:16:35;;;;;;;;;;;14.90;90.10;;;;;;5055916;28;19928;-55
2022/03/19 12:19:04;;;;;;;;;;;14.80;87.20;;;;;;5066564;28;20052;-55
2022/03/19 12:21:34;;;;;;;;;;;14.70;90.00;;;;;;5064823;28;19925;-55
2022/03/19 12:24:15;;;;;;;;;;;14.90;88.90;;;;;;5062235;28;19982;-55
2022/03/19 12:26:43;;;;;;;;;;;15.10;87.70;;;;;;5067940;28;19932;-57
2022/03/19 12:29:11;;;;;;;;;;;15.10;90.30;;;;;;5061189;28;19932;-56
2022/03/19 12:31:38;;;;;;;;;;;15.20;89.00;;;;;;5064976;28;19928;-56
2022/03/19 12:34:06;;;;;;;;;;;15.00;88.80;;;;;;5072653;28;20453;-56
2022/03/19 12:36:33;;;;;;;;;;;15.10;86.70;;;;;;5064381;28;20390;-56
2022/03/19 12:39:03;;;;;;;;;;;15.00;86.60;;;;;;5062945;28;19940;-56
2022/03/19 12:41:32;;;;;;;;;;;15.30;87.50;;;;;;5071479;28;19928;-56
2022/03/19 12:43:59;;;;;;;;;;;15.40;85.10;;;;;;5069852;28;19924;-55
2022/03/19 12:46:27;;;;;;;;;;;15.20;84.40;;;;;;5072568;28;19970;-57
2022/03/19 12:49:01;;;;;;;;;;;15.00;84.50;;;;;;5071907;28;20233;-56
2022/03/19 12:51:30;;;;;;;;;;;15.10;84.80;;;;;;5072192;28;19929;-56
2022/03/19 12:53:57;;;;;;;;;;;15.10;82.60;;;;;;5072470;28;20303;-55
2022/03/19 12:56:24;;;;;;;;;;;15.00;84.30;;;;;;5068754;28;20476;-56
2022/03/19 12:58:52;;;;;;;;;;;15.20;82.70;;;;;;5071492;28;19928;-56
2022/03/19 13:01:20;;;;;;;;;;;15.00;84.10;;;;;;5071410;28;19933;-56
2022/03/19 13:03:46;;;;;;;;;;;14.80;82.00;;;;;;5071619;28;20015;-56
2022/03/19 13:06:16;;;;;;;;;;;15.10;82.50;;;;;;5072690;28;19925;-56
2022/03/19 13:08:45;;;;;;;;;;;15.20;81.10;;;;;;5071651;28;19931;-56
2022/03/19 13:11:13;;;;;;;;;;;15.00;82.90;;;;;;5061608;28;20403;-56
2022/03/19 13:13:40;;;;;;;;;;;14.90;83.20;;;;;;5052400;28;19971;-56
2022/03/19 13:16:08;;;;;;;;;;;14.70;79.70;;;;;;5052450;28;19924;-56
2022/03/19 13:18:35;;;;;;;;;;;14.80;80.30;;;;;;5070814;28;19930;-56
2022/03/19 13:21:03;;;;;;;;;;;14.30;79.10;;;;;;5069664;28;19956;-55
2022/03/19 13:23:30;;;;;;;;;;;14.10;80.60;;;;;;5071821;28;19925;-55
2022/03/19 13:25:59;;;;;;;;;;;14.10;81.30;;;;;;5071705;28;20361;-56
2022/03/19 13:28:25;;;;;;;;;;;14.40;80.80;;;;;;5071629;28;20269;-56
2022/03/19 13:30:52;;;;;;;;;;;14.70;82.50;;;;;;5070823;28;19932;-56
2022/03/19 13:33:20;;;;;;;;;;;14.60;81.10;;;;;;5071024;28;19929;-56
2022/03/19 13:35:48;;;;;;;;;;;14.40;80.80;;;;;;5071709;28;19924;-56
2022/03/19 13:38:16;;;;;;;;;;;14.20;83.40;;;;;;5071447;28;19928;-56
2022/03/19 13:40:42;;;;;;;;;;;14.20;84.70;;;;;;5071721;28;19924;-56
2022/03/19 13:43:11;;;;;;;;;;;14.30;84.40;;;;;;5071852;28;19924;-56
2022/03/19 13:45:38;;;;;;;;;;;14.20;82.90;;;;;;5071837;28;20046;-56
2022/03/19 13:48:05;;;;;;;;;;;14.10;82.40;;;;;;5071362;28;20399;-56
2022/03/19 13:50:35;;;;;;;;;;;14.10;83.00;;;;;;5071364;28;19928;-57
2022/03/19 13:53:02;;;;;;;;;;;13.90;84.80;;;;;;5069880;28;19928;-56
2022/03/19 13:55:36;;;;;;;;;;;13.70;82.20;;;;;;5070199;28;20014;-56
2022/03/19 13:58:04;;;;;;;;;;;13.40;85.50;;;;;;5068375;28;19924;-56
2022/03/19 14:00:35;;;;;;;;;;;13.70;85.00;;;;;;5071862;28;19928;-56
2022/03/19 14:03:03;;;;;;;;;;;13.70;83.40;;;;;;5071324;28;20352;-56
2022/03/19 14:05:31;;;;;;;;;;;13.60;82.10;;;;;;5070330;28;19925;-56
2022/03/19 14:08:00;;;;;;;;;;;13.70;82.50;;;;;;5070321;28;19928;-56
2022/03/19 14:10:29;;;;;;;;;;;13.70;84.80;;;;;;5070469;28;19939;-56
2022/03/19 14:13:01;;;;;;;;;;;13.70;82.70;;;;;;5070864;28;19970;-56
2022/03/19 14:15:35;;;;;;;;;;;13.80;82.10;;;;;;5070668;28;19929;-56
2022/03/19 14:18:04;;;;;;;;;;;13.80;82.90;;;;;;5068101;28;19962;-56
2022/03/19 14:20:31;;;;;;;;;;;13.90;80.10;;;;;;5071447;28;20301;-58
2022/03/19 14:22:57;;;;;;;;;;;13.80;80.50;;;;;;5070626;28;19985;-57
2022/03/19 14:25:24;;;;;;;;;;;13.70;80.20;;;;;;5070463;28;19925;-57
2022/03/19 14:28:03;;;;;;;;;;;13.50;82.50;;;;;;5071509;28;19978;-55
2022/03/19 14:30:31;;;;;;;;;;;13.40;83.60;;;;;;5070428;28;19977;-57
2022/03/19 14:32:59;;;;;;;;;;;13.40;83.40;;;;;;5070467;28;19925;-57
2022/03/19 14:35:44;;;;;;;;;;;13.40;82.60;;;;;;5070930;28;19967;-58
2022/03/19 14:38:17;;;;;;;;;;;13.40;83.30;;;;;;5069529;28;19978;-57
2022/03/19 14:40:44;;;;;;;;;;;13.60;83.20;;;;;;5059145;28;19924;-57
2022/03/19 14:43:14;;;;;;;;;;;13.20;83.40;;;;;;5069511;28;20376;-57